Cromwell, Minnesota
Current Conditions -  °F | °C
As of 6:36 AM on Monday 24 Nov 2014 (Local Time) from KCOQ Reporting Station
Light Snow Light Snow  
Wind Chill: 15°   Ceiling: 1800
Heat Index: 28°   Visibility: 4mi
Dew Point: 27°   Wind: 22mph
Humidity: 93%   Direction: 310°NW
Pressure: 29.25"   Gusts: 30mph
Location:  46.68°N, 92.88°W
Report Text: KCOQ 241236Z AUTO 31019G26KT 4SM -SN SCT012 BKN018 OVC060 M02/M03 A2925 RMK AO2
Loading
Personal Weather Stations






























Interactive Weather Map New forecast layout! Learn more

10-Day Weather Forecast

Advertisements
Track Severe Weather on mobile